Terminal Aerodrome Forecast
Issued by NWS Memphis, TN

Home | Current Version | Previous Version | Text Only | Print | Product List | Glossary On
Versions: 1 2 3 4 5 6 7 8 9 10 11 12 13 14 15 16
000
FTUS44 KMEG 221721
TAFMKL
TAF
KMKL 221721Z 2218/2318 15008KT P6SM VCSH BKN020 OVC035
     FM222200 16012KT P6SM VCSH SCT025 BKN035
      TEMPO 2301/2304 3SM SHRA BKN025
     FM230400 18012KT P6SM VCSH OVC025
     FM231300 18012G18KT 3SM SHRA OVC015=

USA.gov is the U.S. government's official web portal to all federal, state and local government web resources and services.